sensor_id;sensor_type;location;lat;lon;timestamp;pressure;altitude;pressure_sealevel;temperature;humidity
72285;BME280;60220;53.552;10.092;2024-03-07T00:00:57;102628.00;;;5.88;100.00
72285;BME280;60220;53.552;10.092;2024-03-07T00:03:25;102632.34;;;5.65;100.00
72285;BME280;60220;53.552;10.092;2024-03-07T00:05:53;102625.75;;;5.97;100.00
72285;BME280;60220;53.552;10.092;2024-03-07T00:08:20;102620.84;;;6.06;100.00
72285;BME280;60220;53.552;10.092;2024-03-07T00:10:46;102620.53;;;5.97;100.00
72285;BME280;60220;53.552;10.092;2024-03-07T00:13:15;102624.16;;;6.26;100.00
72285;BME280;60220;53.552;10.092;2024-03-07T00:15:45;102627.28;;;6.16;100.00
72285;BME280;60220;53.552;10.092;2024-03-07T00:18:20;102627.81;;;6.83;100.00
72285;BME280;60220;53.552;10.092;2024-03-07T00:20:50;102624.91;;;6.74;100.00
72285;BME280;60220;53.552;10.092;2024-03-07T00:23:31;102632.13;;;6.30;100.00
72285;BME280;60220;53.552;10.092;2024-03-07T00:25:59;102635.47;;;6.26;100.00
72285;BME280;60220;53.552;10.092;2024-03-07T00:28:28;102629.91;;;6.41;100.00
72285;BME280;60220;53.552;10.092;2024-03-07T00:31:00;102627.63;;;6.77;100.00
72285;BME280;60220;53.552;10.092;2024-03-07T00:33:26;102625.97;;;6.54;100.00
72285;BME280;60220;53.552;10.092;2024-03-07T00:35:54;102634.22;;;6.66;100.00
72285;BME280;60220;53.552;10.092;2024-03-07T00:38:22;102631.00;;;6.47;100.00
72285;BME280;60220;53.552;10.092;2024-03-07T00:41:03;102631.00;;;6.47;100.00
72285;BME280;60220;53.552;10.092;2024-03-07T00:43:30;102635.13;;;6.68;100.00
72285;BME280;60220;53.552;10.092;2024-03-07T00:45:56;102630.34;;;6.80;100.00
72285;BME280;60220;53.552;10.092;2024-03-07T00:48:23;102625.13;;;6.55;100.00
72285;BME280;60220;53.552;10.092;2024-03-07T00:50:52;102617.75;;;6.16;100.00
72285;BME280;60220;53.552;10.092;2024-03-07T00:53:27;102616.19;;;6.21;100.00
72285;BME280;60220;53.552;10.092;2024-03-07T00:55:53;102612.63;;;6.19;100.00
72285;BME280;60220;53.552;10.092;2024-03-07T00:58:20;102611.72;;;6.69;100.00
72285;BME280;60220;53.552;10.092;2024-03-07T01:00:46;102613.06;;;6.31;100.00
72285;BME280;60220;53.552;10.092;2024-03-07T01:03:13;102616.91;;;6.17;100.00
72285;BME280;60220;53.552;10.092;2024-03-07T01:05:42;102628.19;;;5.92;100.00
72285;BME280;60220;53.552;10.092;2024-03-07T01:08:09;102621.69;;;6.56;100.00
72285;BME280;60220;53.552;10.092;2024-03-07T01:10:37;102616.47;;;6.05;100.00
72285;BME280;60220;53.552;10.092;2024-03-07T01:13:04;102609.44;;;6.28;100.00
72285;BME280;60220;53.552;10.092;2024-03-07T01:15:34;102613.66;;;6.49;100.00
72285;BME280;60220;53.552;10.092;2024-03-07T01:18:02;102612.94;;;6.28;100.00
72285;BME280;60220;53.552;10.092;2024-03-07T01:20:28;102607.31;;;6.16;100.00
72285;BME280;60220;53.552;10.092;2024-03-07T01:22:55;102613.06;;;6.31;100.00
72285;BME280;60220;53.552;10.092;2024-03-07T01:25:22;102600.88;;;6.84;100.00
72285;BME280;60220;53.552;10.092;2024-03-07T01:27:50;102609.16;;;6.71;100.00
72285;BME280;60220;53.552;10.092;2024-03-07T01:30:17;102604.16;;;6.77;100.00
72285;BME280;60220;53.552;10.092;2024-03-07T01:32:43;102600.50;;;6.72;100.00
72285;BME280;60220;53.552;10.092;2024-03-07T01:35:10;102595.63;;;6.30;100.00
72285;BME280;60220;53.552;10.092;2024-03-07T01:37:38;102593.38;;;6.41;100.00
72285;BME280;60220;53.552;10.092;2024-03-07T01:40:06;102594.94;;;6.11;100.00
72285;BME280;60220;53.552;10.092;2024-03-07T01:42:33;102598.25;;;7.11;100.00
72285;BME280;60220;53.552;10.092;2024-03-07T01:45:02;102600.59;;;7.02;100.00
72285;BME280;60220;53.552;10.092;2024-03-07T01:47:31;102595.63;;;6.56;100.00
72285;BME280;60220;53.552;10.092;2024-03-07T01:49:58;102591.97;;;6.25;100.00
72285;BME280;60220;53.552;10.092;2024-03-07T01:52:25;102597.72;;;6.40;100.00
72285;BME280;60220;53.552;10.092;2024-03-07T01:54:52;102603.97;;;6.20;100.00
72285;BME280;60220;53.552;10.092;2024-03-07T01:57:19;102599.19;;;6.59;100.00
72285;BME280;60220;53.552;10.092;2024-03-07T01:59:46;102599.09;;;6.56;100.00
72285;BME280;60220;53.552;10.092;2024-03-07T02:02:15;102598.25;;;7.11;100.00
72285;BME280;60220;53.552;10.092;2024-03-07T02:04:43;102603.59;;;6.35;100.00
72285;BME280;60220;53.552;10.092;2024-03-07T02:07:09;102601.75;;;7.11;100.00
72285;BME280;60220;53.552;10.092;2024-03-07T02:09:36;102591.00;;;7.30;100.00
72285;BME280;60220;53.552;10.092;2024-03-07T02:12:04;102597.50;;;6.88;100.00
72285;BME280;60220;53.552;10.092;2024-03-07T02:14:31;102596.13;;;6.99;100.00
72285;BME280;60220;53.552;10.092;2024-03-07T02:16:57;102594.19;;;6.92;100.00
72285;BME280;60220;53.552;10.092;2024-03-07T02:19:26;102586.66;;;6.74;100.00
72285;BME280;60220;53.552;10.092;2024-03-07T02:21:54;102591.31;;;6.58;100.00
72285;BME280;60220;53.552;10.092;2024-03-07T02:24:20;102593.44;;;6.96;100.00
72285;BME280;60220;53.552;10.092;2024-03-07T02:26:47;102581.47;;;6.76;100.00
72285;BME280;60220;53.552;10.092;2024-03-07T02:29:16;102574.34;;;6.18;100.00
72285;BME280;60220;53.552;10.092;2024-03-07T02:31:44;102583.19;;;6.48;100.00
72285;BME280;60220;53.552;10.092;2024-03-07T02:34:12;102575.06;;;6.93;100.00
72285;BME280;60220;53.552;10.092;2024-03-07T02:36:38;102585.56;;;6.68;100.00
72285;BME280;60220;53.552;10.092;2024-03-07T02:39:06;102582.81;;;6.11;100.00
72285;BME280;60220;53.552;10.092;2024-03-07T02:41:33;102577.28;;;6.27;100.00
72285;BME280;60220;53.552;10.092;2024-03-07T02:44:02;102571.09;;;6.00;100.00
72285;BME280;60220;53.552;10.092;2024-03-07T02:46:32;102569.97;;;6.42;100.00
72285;BME280;60220;53.552;10.092;2024-03-07T02:48:58;102574.06;;;6.63;100.00
72285;BME280;60220;53.552;10.092;2024-03-07T02:51:27;102575.56;;;6.55;100.00
72285;BME280;60220;53.552;10.092;2024-03-07T02:53:55;102576.53;;;6.58;100.00
72285;BME280;60220;53.552;10.092;2024-03-07T02:56:25;102570.84;;;6.70;100.00
72285;BME280;60220;53.552;10.092;2024-03-07T02:58:52;102565.16;;;6.04;100.00
72285;BME280;60220;53.552;10.092;2024-03-07T03:01:18;102567.81;;;6.56;100.00
72285;BME280;60220;53.552;10.092;2024-03-07T03:03:45;102566.31;;;6.37;100.00
72285;BME280;60220;53.552;10.092;2024-03-07T03:06:12;102571.00;;;6.47;100.00
72285;BME280;60220;53.552;10.092;2024-03-07T03:08:38;102571.78;;;5.94;100.00
72285;BME280;60220;53.552;10.092;2024-03-07T03:11:05;102572.63;;;6.71;100.00
72285;BME280;60220;53.552;10.092;2024-03-07T03:13:37;102561.97;;;6.65;100.00
72285;BME280;60220;53.552;10.092;2024-03-07T03:16:07;102568.06;;;6.38;100.00
72285;BME280;60220;53.552;10.092;2024-03-07T03:18:37;102567.03;;;6.08;100.00
72285;BME280;60220;53.552;10.092;2024-03-07T03:21:04;102566.78;;;6.26;100.00
72285;BME280;60220;53.552;10.092;2024-03-07T03:23:31;102563.22;;;5.98;100.00
72285;BME280;60220;53.552;10.092;2024-03-07T03:26:00;102564.63;;;6.39;100.00
72285;BME280;60220;53.552;10.092;2024-03-07T03:28:28;102567.19;;;6.91;100.00
72285;BME280;60220;53.552;10.092;2024-03-07T03:30:56;102564.34;;;6.84;100.00
72285;BME280;60220;53.552;10.092;2024-03-07T03:33:23;102558.81;;;6.75;100.00
72285;BME280;60220;53.552;10.092;2024-03-07T03:35:50;102557.25;;;6.26;100.00
72285;BME280;60220;53.552;10.092;2024-03-07T03:38:16;102556.00;;;6.15;100.00
72285;BME280;60220;53.552;10.092;2024-03-07T03:40:45;102558.06;;;6.51;100.00
72285;BME280;60220;53.552;10.092;2024-03-07T03:43:12;102558.59;;;6.15;100.00
72285;BME280;60220;53.552;10.092;2024-03-07T03:45:38;102556.34;;;6.00;100.00
72285;BME280;60220;53.552;10.092;2024-03-07T03:48:06;102551.06;;;6.24;100.00
72285;BME280;60220;53.552;10.092;2024-03-07T03:50:33;102559.19;;;5.83;100.00
72285;BME280;60220;53.552;10.092;2024-03-07T03:53:00;102560.38;;;6.16;100.00
72285;BME280;60220;53.552;10.092;2024-03-07T03:55:29;102555.25;;;6.19;100.00
72285;BME280;60220;53.552;10.092;2024-03-07T03:57:57;102561.06;;;5.39;100.00
72285;BME280;60220;53.552;10.092;2024-03-07T04:00:24;102561.38;;;5.48;100.00
72285;BME280;60220;53.552;10.092;2024-03-07T04:02:51;102562.56;;;5.56;100.00
72285;BME280;60220;53.552;10.092;2024-03-07T04:05:20;102565.97;;;6.01;100.00
72285;BME280;60220;53.552;10.092;2024-03-07T04:07:49;102567.34;;;5.00;100.00
72285;BME280;60220;53.552;10.092;2024-03-07T04:10:18;102562.94;;;5.43;100.00
72285;BME280;60220;53.552;10.092;2024-03-07T04:12:44;102557.69;;;5.18;100.00
72285;BME280;60220;53.552;10.092;2024-03-07T04:15:15;102560.94;;;5.36;100.00
72285;BME280;60220;53.552;10.092;2024-03-07T04:17:42;102556.22;;;5.74;100.00
72285;BME280;60220;53.552;10.092;2024-03-07T04:20:10;102566.81;;;5.31;100.00
72285;BME280;60220;53.552;10.092;2024-03-07T04:22:39;102567.03;;;5.13;100.00
72285;BME280;60220;53.552;10.092;2024-03-07T04:25:07;102565.34;;;5.15;100.00
72285;BME280;60220;53.552;10.092;2024-03-07T04:27:35;102572.34;;;5.16;100.00
72285;BME280;60220;53.552;10.092;2024-03-07T04:30:07;102577.94;;;5.04;100.00
72285;BME280;60220;53.552;10.092;2024-03-07T04:32:36;102577.44;;;5.13;100.00
72285;BME280;60220;53.552;10.092;2024-03-07T04:35:03;102576.09;;;4.80;100.00
72285;BME280;60220;53.552;10.092;2024-03-07T04:37:33;102576.19;;;4.40;100.00
72285;BME280;60220;53.552;10.092;2024-03-07T04:40:04;102572.06;;;4.45;100.00
72285;BME280;60220;53.552;10.092;2024-03-07T04:42:36;102577.84;;;4.58;100.00
72285;BME280;60220;53.552;10.092;2024-03-07T04:45:06;102571.38;;;4.49;100.00
72285;BME280;60220;53.552;10.092;2024-03-07T04:47:39;102573.94;;;4.47;100.00
72285;BME280;60220;53.552;10.092;2024-03-07T04:50:06;102575.22;;;4.58;100.00
72285;BME280;60220;53.552;10.092;2024-03-07T04:52:34;102579.66;;;4.82;100.00
72285;BME280;60220;53.552;10.092;2024-03-07T04:55:01;102572.56;;;5.22;100.00
72285;BME280;60220;53.552;10.092;2024-03-07T04:57:29;102569.50;;;4.88;100.00
72285;BME280;60220;53.552;10.092;2024-03-07T04:59:56;102569.00;;;5.42;100.00
72285;BME280;60220;53.552;10.092;2024-03-07T05:02:22;102561.75;;;5.57;100.00
72285;BME280;60220;53.552;10.092;2024-03-07T05:04:49;102560.06;;;5.59;100.00
72285;BME280;60220;53.552;10.092;2024-03-07T05:07:19;102560.06;;;6.07;100.00
72285;BME280;60220;53.552;10.092;2024-03-07T05:09:46;102560.38;;;5.91;100.00
72285;BME280;60220;53.552;10.092;2024-03-07T05:12:15;102557.25;;;5.77;100.00
72285;BME280;60220;53.552;10.092;2024-03-07T05:14:43;102559.22;;;6.08;100.00
72285;BME280;60220;53.552;10.092;2024-03-07T05:17:12;102564.94;;;5.98;100.00
72285;BME280;60220;53.552;10.092;2024-03-07T05:19:39;102572.66;;;5.47;100.00
72285;BME280;60220;53.552;10.092;2024-03-07T05:22:06;102568.03;;;5.64;100.00
72285;BME280;60220;53.552;10.092;2024-03-07T05:24:33;102574.81;;;5.83;100.00
72285;BME280;60220;53.552;10.092;2024-03-07T05:27:00;102580.09;;;5.38;100.00
72285;BME280;60220;53.552;10.092;2024-03-07T05:29:26;102570.59;;;6.10;100.00
72285;BME280;60220;53.552;10.092;2024-03-07T05:31:54;102588.00;;;4.52;100.00
72285;BME280;60220;53.552;10.092;2024-03-07T05:34:21;102592.75;;;4.21;100.00
72285;BME280;60220;53.552;10.092;2024-03-07T05:36:48;102593.72;;;4.04;100.00
72285;BME280;60220;53.552;10.092;2024-03-07T05:39:16;102594.81;;;4.28;100.00
72285;BME280;60220;53.552;10.092;2024-03-07T05:41:44;102596.94;;;4.59;100.00
72285;BME280;60220;53.552;10.092;2024-03-07T05:44:11;102597.69;;;4.77;100.00
72285;BME280;60220;53.552;10.092;2024-03-07T05:46:37;102604.06;;;4.42;100.00
72285;BME280;60220;53.552;10.092;2024-03-07T05:49:08;102595.63;;;4.91;100.00
72285;BME280;60220;53.552;10.092;2024-03-07T05:51:34;102600.78;;;4.06;100.00
72285;BME280;60220;53.552;10.092;2024-03-07T05:54:01;102606.97;;;3.51;100.00
72285;BME280;60220;53.552;10.092;2024-03-07T05:56:32;102606.94;;;4.29;100.00
72285;BME280;60220;53.552;10.092;2024-03-07T05:59:01;102594.28;;;4.16;100.00
72285;BME280;60220;53.552;10.092;2024-03-07T06:01:29;102609.09;;;3.98;100.00
72285;BME280;60220;53.552;10.092;2024-03-07T06:03:59;102592.47;;;4.15;100.00
72285;BME280;60220;53.552;10.092;2024-03-07T06:06:28;102602.16;;;4.38;100.00
72285;BME280;60220;53.552;10.092;2024-03-07T06:08:57;102597.84;;;4.18;100.00
72285;BME280;60220;53.552;10.092;2024-03-07T06:11:26;102594.91;;;4.72;100.00
72285;BME280;60220;53.552;10.092;2024-03-07T06:13:52;102609.69;;;4.32;100.00
72285;BME280;60220;53.552;10.092;2024-03-07T06:16:19;102617.16;;;3.65;100.00
72285;BME280;60220;53.552;10.092;2024-03-07T06:18:45;102606.13;;;4.30;100.00
72285;BME280;60220;53.552;10.092;2024-03-07T06:21:12;102605.94;;;4.67;100.00
72285;BME280;60220;53.552;10.092;2024-03-07T06:23:43;102603.19;;;4.02;100.00
72285;BME280;60220;53.552;10.092;2024-03-07T06:26:13;102604.28;;;4.07;100.00
72285;BME280;60220;53.552;10.092;2024-03-07T06:28:42;102607.84;;;4.50;100.00
72285;BME280;60220;53.552;10.092;2024-03-07T06:31:10;102610.09;;;4.01;100.00
72285;BME280;60220;53.552;10.092;2024-03-07T06:33:39;102623.13;;;4.22;100.00
72285;BME280;60220;53.552;10.092;2024-03-07T06:36:08;102615.78;;;3.93;100.00
72285;BME280;60220;53.552;10.092;2024-03-07T06:38:35;102623.03;;;3.61;100.00
72285;BME280;60220;53.552;10.092;2024-03-07T06:41:03;102623.41;;;3.32;100.00
72285;BME280;60220;53.552;10.092;2024-03-07T06:43:30;102625.81;;;3.66;100.00
72285;BME280;60220;53.552;10.092;2024-03-07T06:45:56;102628.03;;;3.39;100.00
72285;BME280;60220;53.552;10.092;2024-03-07T06:48:23;102635.56;;;3.33;100.00
72285;BME280;60220;53.552;10.092;2024-03-07T06:50:52;102636.00;;;3.42;100.00
72285;BME280;60220;53.552;10.092;2024-03-07T06:53:19;102646.78;;;3.51;100.00
72285;BME280;60220;53.552;10.092;2024-03-07T06:55:45;102643.44;;;2.99;100.00
72285;BME280;60220;53.552;10.092;2024-03-07T06:58:15;102645.19;;;3.35;100.00
72285;BME280;60220;53.552;10.092;2024-03-07T07:00:42;102639.44;;;2.70;100.00
72285;BME280;60220;53.552;10.092;2024-03-07T07:03:10;102641.66;;;3.33;100.00
72285;BME280;60220;53.552;10.092;2024-03-07T07:05:38;102646.09;;;2.65;100.00
72285;BME280;60220;53.552;10.092;2024-03-07T07:08:06;102643.81;;;3.07;100.00
72285;BME280;60220;53.552;10.092;2024-03-07T07:10:32;102640.94;;;3.18;100.00
72285;BME280;60220;53.552;10.092;2024-03-07T07:13:01;102649.19;;;3.29;100.00
72285;BME280;60220;53.552;10.092;2024-03-07T07:15:31;102638.19;;;3.52;100.00
72285;BME280;60220;53.552;10.092;2024-03-07T07:17:58;102650.78;;;3.62;100.00
72285;BME280;60220;53.552;10.092;2024-03-07T07:20:27;102645.00;;;3.50;100.00
72285;BME280;60220;53.552;10.092;2024-03-07T07:22:54;102642.28;;;4.05;100.00
72285;BME280;60220;53.552;10.092;2024-03-07T07:25:22;102653.38;;;3.62;100.00
72285;BME280;60220;53.552;10.092;2024-03-07T07:27:50;102643.50;;;3.94;100.00
72285;BME280;60220;53.552;10.092;2024-03-07T07:30:19;102644.13;;;4.47;100.00
72285;BME280;60220;53.552;10.092;2024-03-07T07:32:49;102641.72;;;4.31;100.00
72285;BME280;60220;53.552;10.092;2024-03-07T07:35:16;102639.84;;;3.88;100.00
72285;BME280;60220;53.552;10.092;2024-03-07T07:37:45;102631.19;;;4.28;100.00
72285;BME280;60220;53.552;10.092;2024-03-07T07:40:13;102639.00;;;3.89;100.00
72285;BME280;60220;53.552;10.092;2024-03-07T07:42:44;102637.63;;;3.40;100.00
72285;BME280;60220;53.552;10.092;2024-03-07T07:45:15;102636.16;;;3.83;100.00
72285;BME280;60220;53.552;10.092;2024-03-07T07:47:42;102639.69;;;4.05;100.00
72285;BME280;60220;53.552;10.092;2024-03-07T07:50:14;102639.81;;;3.50;100.00
72285;BME280;60220;53.552;10.092;2024-03-07T07:52:44;102643.22;;;3.49;100.00
72285;BME280;60220;53.552;10.092;2024-03-07T07:55:13;102643.66;;;3.21;100.00
72285;BME280;60220;53.552;10.092;2024-03-07T07:57:41;102652.22;;;3.19;100.00
72285;BME280;60220;53.552;10.092;2024-03-07T08:00:11;102643.94;;;3.64;100.00
72285;BME280;60220;53.552;10.092;2024-03-07T08:02:38;102643.97;;;3.27;100.00
72285;BME280;60220;53.552;10.092;2024-03-07T08:05:04;102642.56;;;3.53;100.00
72285;BME280;60220;53.552;10.092;2024-03-07T08:07:35;102636.69;;;3.76;100.00
72285;BME280;60220;53.552;10.092;2024-03-07T08:10:01;102635.31;;;4.04;100.00
72285;BME280;60220;53.552;10.092;2024-03-07T08:12:37;102638.81;;;3.85;100.00
72285;BME280;60220;53.552;10.092;2024-03-07T08:15:06;102637.50;;;3.37;100.00
72285;BME280;60220;53.552;10.092;2024-03-07T08:17:43;102632.31;;;3.95;100.00
72285;BME280;60220;53.552;10.092;2024-03-07T08:20:11;102637.06;;;3.28;100.00
72285;BME280;60220;53.552;10.092;2024-03-07T08:22:48;102633.91;;;3.35;100.00
72285;BME280;60220;53.552;10.092;2024-03-07T08:25:19;102637.66;;;3.22;100.00
72285;BME280;60220;53.552;10.092;2024-03-07T08:27:49;102640.47;;;3.09;100.00
72285;BME280;60220;53.552;10.092;2024-03-07T08:30:16;102639.72;;;3.29;100.00
72285;BME280;60220;53.552;10.092;2024-03-07T08:32:46;102639.91;;;3.34;100.00
72285;BME280;60220;53.552;10.092;2024-03-07T08:35:13;102636.69;;;3.96;100.00
72285;BME280;60220;53.552;10.092;2024-03-07T08:37:42;102636.94;;;4.21;100.00
72285;BME280;60220;53.552;10.092;2024-03-07T08:40:11;102626.38;;;4.37;100.00
72285;BME280;60220;53.552;10.092;2024-03-07T08:42:45;102634.81;;;4.52;100.00
72285;BME280;60220;53.552;10.092;2024-03-07T08:45:12;102629.44;;;4.48;100.00
72285;BME280;60220;53.552;10.092;2024-03-07T08:47:45;102624.47;;;4.33;100.00
72285;BME280;60220;53.552;10.092;2024-03-07T08:50:15;102624.03;;;4.43;100.00
72285;BME280;60220;53.552;10.092;2024-03-07T08:52:43;102632.63;;;3.44;100.00
72285;BME280;60220;53.552;10.092;2024-03-07T08:55:12;102625.91;;;3.86;100.00
72285;BME280;60220;53.552;10.092;2024-03-07T08:57:40;102624.38;;;3.92;100.00
72285;BME280;60220;53.552;10.092;2024-03-07T09:00:08;102621.88;;;4.33;100.00
72285;BME280;60220;53.552;10.092;2024-03-07T09:02:37;102620.28;;;4.57;100.00
72285;BME280;60220;53.552;10.092;2024-03-07T09:05:05;102632.59;;;4.61;100.00
72285;BME280;60220;53.552;10.092;2024-03-07T09:07:32;102619.50;;;4.81;100.00
72285;BME280;60220;53.552;10.092;2024-03-07T09:09:59;102626.50;;;4.82;100.00
72285;BME280;60220;53.552;10.092;2024-03-07T09:12:27;102622.66;;;4.73;100.00
72285;BME280;60220;53.552;10.092;2024-03-07T09:14:54;102626.44;;;4.59;100.00
72285;BME280;60220;53.552;10.092;2024-03-07T09:17:21;102624.06;;;4.24;100.00
72285;BME280;60220;53.552;10.092;2024-03-07T09:19:54;102636.38;;;4.28;100.00
72285;BME280;60220;53.552;10.092;2024-03-07T09:22:20;102631.00;;;4.04;100.00
72285;BME280;60220;53.552;10.092;2024-03-07T09:24:50;102632.72;;;4.04;100.00
72285;BME280;60220;53.552;10.092;2024-03-07T09:27:17;102635.78;;;3.95;100.00
72285;BME280;60220;53.552;10.092;2024-03-07T09:29:49;102621.69;;;3.88;100.00
72285;BME280;60220;53.552;10.092;2024-03-07T09:32:16;102624.28;;;3.88;100.00
72285;BME280;60220;53.552;10.092;2024-03-07T09:34:43;102618.81;;;3.63;100.00
72285;BME280;60220;53.552;10.092;2024-03-07T09:37:11;102631.63;;;3.99;100.00
72285;BME280;60220;53.552;10.092;2024-03-07T09:39:38;102615.31;;;4.22;100.00
72285;BME280;60220;53.552;10.092;2024-03-07T09:42:06;102616.34;;;4.88;100.00
72285;BME280;60220;53.552;10.092;2024-03-07T09:44:35;102624.13;;;3.85;100.00
72285;BME280;60220;53.552;10.092;2024-03-07T09:47:07;102618.81;;;4.22;100.00
72285;BME280;60220;53.552;10.092;2024-03-07T09:49:34;102623.19;;;3.83;100.00
72285;BME280;60220;53.552;10.092;2024-03-07T09:52:04;102624.84;;;4.21;100.00
72285;BME280;60220;53.552;10.092;2024-03-07T09:54:33;102626.81;;;4.27;100.00
72285;BME280;60220;53.552;10.092;2024-03-07T09:57:02;102623.38;;;4.28;100.00
72285;BME280;60220;53.552;10.092;2024-03-07T09:59:32;102619.03;;;4.48;100.00
72285;BME280;60220;53.552;10.092;2024-03-07T10:02:03;102618.44;;;4.75;100.00
72285;BME280;60220;53.552;10.092;2024-03-07T10:04:38;102625.81;;;3.85;100.00
72285;BME280;60220;53.552;10.092;2024-03-07T10:07:06;102619.72;;;4.23;100.00
72285;BME280;60220;53.552;10.092;2024-03-07T10:09:37;102615.31;;;4.63;100.00
72285;BME280;60220;53.552;10.092;2024-03-07T10:12:08;102611.34;;;4.71;100.00
72285;BME280;60220;53.552;10.092;2024-03-07T10:14:50;102608.88;;;4.97;100.00
72285;BME280;60220;53.552;10.092;2024-03-07T10:17:19;102608.53;;;4.88;100.00
72285;BME280;60220;53.552;10.092;2024-03-07T10:19:48;102611.38;;;4.11;100.00
72285;BME280;60220;53.552;10.092;2024-03-07T10:22:18;102604.69;;;4.37;100.00
72285;BME280;60220;53.552;10.092;2024-03-07T10:24:51;102601.63;;;5.33;100.00
72285;BME280;60220;53.552;10.092;2024-03-07T10:27:19;102598.34;;;4.94;100.00
72285;BME280;60220;53.552;10.092;2024-03-07T10:29:47;102603.53;;;5.60;100.00
72285;BME280;60220;53.552;10.092;2024-03-07T10:32:19;102591.88;;;6.22;100.00
72285;BME280;60220;53.552;10.092;2024-03-07T10:34:45;102589.44;;;6.03;100.00
72285;BME280;60220;53.552;10.092;2024-03-07T10:37:15;102589.25;;;5.97;100.00
72285;BME280;60220;53.552;10.092;2024-03-07T10:39:43;102585.97;;;6.28;100.00
72285;BME280;60220;53.552;10.092;2024-03-07T10:42:13;102589.34;;;6.51;100.00
72285;BME280;60220;53.552;10.092;2024-03-07T10:44:43;102587.81;;;6.84;100.00
72285;BME280;60220;53.552;10.092;2024-03-07T10:47:13;102583.72;;;6.13;100.00
72285;BME280;60220;53.552;10.092;2024-03-07T10:49:50;102583.94;;;6.44;100.00
72285;BME280;60220;53.552;10.092;2024-03-07T10:52:38;102580.47;;;5.95;100.00
72285;BME280;60220;53.552;10.092;2024-03-07T10:55:10;102583.25;;;5.99;100.00
72285;BME280;60220;53.552;10.092;2024-03-07T10:57:49;102581.91;;;6.11;100.00
72285;BME280;60220;53.552;10.092;2024-03-07T11:00:20;102581.25;;;6.16;100.00
72285;BME280;60220;53.552;10.092;2024-03-07T11:02:55;102586.19;;;6.34;100.00
72285;BME280;60220;53.552;10.092;2024-03-07T11:05:25;102577.09;;;6.23;100.00
72285;BME280;60220;53.552;10.092;2024-03-07T11:07:57;102582.28;;;6.21;100.00
72285;BME280;60220;53.552;10.092;2024-03-07T11:10:24;102579.44;;;6.94;100.00
72285;BME280;60220;53.552;10.092;2024-03-07T11:12:51;102580.56;;;6.48;100.00
72285;BME280;60220;53.552;10.092;2024-03-07T11:15:20;102573.13;;;5.85;100.00
72285;BME280;60220;53.552;10.092;2024-03-07T11:17:48;102570.22;;;6.25;100.00
72285;BME280;60220;53.552;10.092;2024-03-07T11:20:19;102569.56;;;6.84;100.00
72285;BME280;60220;53.552;10.092;2024-03-07T11:22:47;102574.75;;;6.30;100.00
72285;BME280;60220;53.552;10.092;2024-03-07T11:25:17;102574.06;;;6.63;100.00
72285;BME280;60220;53.552;10.092;2024-03-07T11:27:51;102566.31;;;6.91;100.00
72285;BME280;60220;53.552;10.092;2024-03-07T11:30:22;102567.00;;;6.59;100.00
72285;BME280;60220;53.552;10.092;2024-03-07T11:32:55;102558.72;;;7.28;100.00
72285;BME280;60220;53.552;10.092;2024-03-07T11:35:31;102553.44;;;7.25;100.00
72285;BME280;60220;53.552;10.092;2024-03-07T11:38:00;102559.50;;;6.96;100.00
72285;BME280;60220;53.552;10.092;2024-03-07T11:40:50;102553.63;;;7.31;100.00
72285;BME280;60220;53.552;10.092;2024-03-07T11:43:17;102558.88;;;7.05;100.00
72285;BME280;60220;53.552;10.092;2024-03-07T11:45:55;102546.59;;;7.60;100.00
72285;BME280;60220;53.552;10.092;2024-03-07T11:48:25;102545.97;;;7.09;100.00
72285;BME280;60220;53.552;10.092;2024-03-07T11:50:52;102553.66;;;6.76;100.00
72285;BME280;60220;53.552;10.092;2024-03-07T11:53:20;102539.22;;;7.46;100.00
72285;BME280;60220;53.552;10.092;2024-03-07T11:55:51;102546.19;;;6.88;100.00
72285;BME280;60220;53.552;10.092;2024-03-07T11:58:25;102536.78;;;7.52;100.00
72285;BME280;60220;53.552;10.092;2024-03-07T12:00:57;102542.00;;;7.22;100.00
72285;BME280;60220;53.552;10.092;2024-03-07T12:03:26;102547.28;;;6.95;100.00
72285;BME280;60220;53.552;10.092;2024-03-07T12:05:54;102540.47;;;7.00;100.00
72285;BME280;60220;53.552;10.092;2024-03-07T12:08:22;102537.09;;;7.04;100.00
72285;BME280;60220;53.552;10.092;2024-03-07T12:10:50;102528.31;;;7.01;100.00
72285;BME280;60220;53.552;10.092;2024-03-07T12:13:21;102526.09;;;6.58;100.00
72285;BME280;60220;53.552;10.092;2024-03-07T12:15:52;102527.91;;;6.33;100.00
72285;BME280;60220;53.552;10.092;2024-03-07T12:18:22;102521.63;;;7.10;100.00
72285;BME280;60220;53.552;10.092;2024-03-07T12:20:49;102514.44;;;7.33;100.00
72285;BME280;60220;53.552;10.092;2024-03-07T12:23:22;102513.34;;;6.40;100.00
72285;BME280;60220;53.552;10.092;2024-03-07T12:26:01;102508.88;;;6.91;100.00
72285;BME280;60220;53.552;10.092;2024-03-07T12:28:28;102509.22;;;7.03;100.00
72285;BME280;60220;53.552;10.092;2024-03-07T12:31:01;102503.56;;;7.18;100.00
72285;BME280;60220;53.552;10.092;2024-03-07T12:33:29;102503.72;;;6.94;100.00
72285;BME280;60220;53.552;10.092;2024-03-07T12:35:57;102498.03;;;7.37;100.00
72285;BME280;60220;53.552;10.092;2024-03-07T12:38:31;102490.00;;;7.61;100.00
72285;BME280;60220;53.552;10.092;2024-03-07T12:41:17;102492.34;;;7.20;100.00
72285;BME280;60220;53.552;10.092;2024-03-07T12:43:46;102490.81;;;7.28;100.00
72285;BME280;60220;53.552;10.092;2024-03-07T12:46:13;102488.19;;;7.27;100.00
72285;BME280;60220;53.552;10.092;2024-03-07T12:48:40;102489.22;;;7.04;100.00